Vidfoss — V2QK4 — position and weather

sailwx.info

Track history (hours):
 
Tides and Currents Weather Stations Pressure Air Temp Water Temp Dewpoint Dewpoint Depression Visibility Wind Speed Wind Dir Waves Ship Positions

Vidfoss

Last reported at 2015-Apr-21 02:30 UTC. Time now 2015-Apr-21 02:58 UTC.
Position N 63°41' E 009°29'.

Length 93 m; draft 4.8 m.

Type: Cargo ship. MMSI: 305846000.

Date/timePositionNaut miles runAvg speedWind from/ knotsBaromVisibWave heightAir tempDewpointWater temp
2015-Apr-21 02:30N 63°41' E 009°29'291 7.9
2015-Apr-19 13:32N 59°15' E 005°21'1212.0
2015-Apr-19 12:33N 59°05' E 005°33'1010.3
2015-Apr-19 11:33N 58°58' E 005°48'2 1.7
2015-Apr-19 10:33N 58°57' E 005°45'0 0.0
2015-Apr-19 09:33N 58°57' E 005°45'4 3.9
2015-Apr-19 08:33N 58°53' E 005°45'1 1.4
2015-Apr-19 07:33N 58°51' E 005°45'6 5.9
2015-Apr-19 06:33N 58°57' E 005°47'9 8.5
2015-Apr-19 05:33N 59°02' E 005°34'1212.1
2015-Apr-19 04:33N 58°50' E 005°29'2311.7
2015-Apr-19 02:33N 58°27' E 005°35'1212.1
2015-Apr-19 01:33N 58°16' E 005°45'23710.7
2015-Apr-18 03:25N 54°21' E 004°59'1112.0
2015-Apr-18 02:32N 54°10' E 004°56'1211.9
2015-Apr-18 01:33N 53°59' E 004°53'1211.9
2015-Apr-18 00:33N 53°47' E 004°52'1211.5
2015-Apr-17 23:32N 53°35' E 004°49'1111.2
2015-Apr-17 22:33N 53°25' E 004°42'2310.7
2015-Apr-17 20:22N 53°03' E 004°27'911.0
2015-Apr-17 19:33N 52°55' E 004°27'1111.2
2015-Apr-17 18:33N 52°43' E 004°28'1111.0
2015-Apr-17 17:33N 52°32' E 004°29'6 6.1
2015-Apr-17 16:34N 52°28' E 004°36'2 2.4
2015-Apr-17 15:33N 52°28' E 004°40'0 0.0
2015-Apr-17 14:33N 52°28' E 004°40'0 0.0
2015-Apr-17 13:33N 52°28' E 004°40'0 0.0
2015-Apr-17 12:32N 52°28' E 004°40'0 0.0
2015-Apr-17 11:33N 52°28' E 004°40'0 0.0
2015-Apr-17 10:33N 52°28' E 004°40'0 0.0
2015-Apr-17 09:33N 52°28' E 004°40'0 0.0
2015-Apr-17 08:33N 52°28' E 004°40'0 0.0
2015-Apr-17 07:33N 52°28' E 004°40'0 0.0
2015-Apr-17 06:33N 52°28' E 004°40'0 0.0
2015-Apr-17 05:33N 52°28' E 004°40'0 0.0
2015-Apr-17 04:33N 52°28' E 004°40'0 0.0
2015-Apr-17 03:33N 52°28' E 004°40'0 0.0
2015-Apr-17 02:33N 52°28' E 004°40'0 0.0
2015-Apr-17 01:33N 52°28' E 004°40'0 0.0
2015-Apr-17 00:33N 52°28' E 004°40'0 0.0
2015-Apr-16 23:33N 52°28' E 004°40'0 0.0
2015-Apr-16 22:33N 52°28' E 004°40'0 0.0
2015-Apr-16 21:33N 52°28' E 004°40'0 0.0
2015-Apr-16 20:33N 52°28' E 004°40'0 0.0
2015-Apr-16 19:33N 52°28' E 004°40'0 0.0
2015-Apr-16 18:33N 52°28' E 004°40'0 0.0
2015-Apr-16 17:33N 52°28' E 004°40'0 0.0
2015-Apr-16 16:33N 52°28' E 004°40'0 0.0
2015-Apr-16 15:33N 52°28' E 004°40'0 0.0
2015-Apr-16 14:33N 52°28' E 004°40'0 0.0
2015-Apr-16 13:33N 52°28' E 004°40'0 0.0
2015-Apr-16 12:33N 52°28' E 004°40'0 0.0
2015-Apr-16 11:33N 52°28' E 004°40'0 0.0
2015-Apr-16 10:33N 52°28' E 004°40'0 0.0
2015-Apr-16 09:33N 52°28' E 004°40'0 0.0
2015-Apr-16 08:33N 52°28' E 004°40'0 0.0
2015-Apr-16 07:33N 52°28' E 004°40'0 0.0
2015-Apr-16 06:33N 52°28' E 004°40'2 2.3
2015-Apr-16 05:33N 52°28' E 004°36'5 4.5
2015-Apr-16 04:33N 52°28' E 004°29'1111.1
2015-Apr-16 03:33N 52°29' E 004°11'1211.7
2015-Apr-16 02:32N 52°27' E 003°51'1210.8
2015-Apr-16 01:27N 52°29' E 003°32'1011.1
2015-Apr-16 00:32N 52°33' E 003°17'5811.7
2015-Apr-15 19:33N 52°57' E 001°49'1312.7
2015-Apr-15 18:33N 53°04' E 001°32'5413.4
2015-Apr-15 14:33N 53°32' E 000°15'1010.3
2015-Apr-15 13:34N 53°35' W 000°01'2 2.3
2015-Apr-15 12:33N 53°35' W 000°04'0 0.0
2015-Apr-15 11:33N 53°35' W 000°04'0 0.0
2015-Apr-15 10:34N 53°35' W 000°04'0 0.0
2015-Apr-15 09:33N 53°35' W 000°04'0 0.0
2015-Apr-15 08:33N 53°35' W 000°04'0 0.0
2015-Apr-15 07:34N 53°35' W 000°04'0 0.0
2015-Apr-15 06:33N 53°35' W 000°04'0 0.0
2015-Apr-15 05:33N 53°35' W 000°04'0 0.0
2015-Apr-15 04:34N 53°35' W 000°04'0 0.0
2015-Apr-15 03:33N 53°35' W 000°04'0 0.2
2015-Apr-15 02:33N 53°35' W 000°04'2 2.1
2015-Apr-15 01:34N 53°36' W 000°01'7 6.7
2015-Apr-15 00:34N 53°33' E 000°09'6 6.1
2015-Apr-14 23:32N 53°36' E 000°19'6 6.4
2015-Apr-14 22:32N 53°41' E 000°26'9 8.9
2015-Apr-14 21:33N 53°49' E 000°32'8 8.1
2015-Apr-14 20:32N 53°56' E 000°37'9 7.8
2015-Apr-14 19:20N 54°05' E 000°44'32511.3
2015-Apr-13 14:31N 58°56' E 005°05'1111.5
2015-Apr-13 13:33N 59°05' E 005°16'3 3.5
2015-Apr-13 12:33N 59°09' E 005°16'1 0.8
2015-Apr-13 11:33N 59°08' E 005°17'1 0.7
2015-Apr-13 10:33N 59°08' E 005°19'2110.3
2015-Apr-13 08:29N 59°29' E 005°12'  
Track history (hours):
 
Tides and Currents Weather Stations Pressure Air Temp Water Temp Dewpoint Dewpoint Depression Visibility Wind Speed Wind Dir Waves Ship Positions

Vidfoss

Last reported at 2015-Apr-21 02:30 UTC. Time now 2015-Apr-21 02:58 UTC.
Position N 63°41' E 009°29'.

Length 93 m; draft 4.8 m.

Type: Cargo ship. MMSI: 305846000.

Date/timePositionNaut miles runAvg speedWind from/ knotsBaromVisibWave heightAir tempDewpointWater temp
2015-Apr-21 02:30N 63°41' E 009°29'291 7.9
2015-Apr-19 13:32N 59°15' E 005°21'1212.0
2015-Apr-19 12:33N 59°05' E 005°33'1010.3
2015-Apr-19 11:33N 58°58' E 005°48'2 1.7
2015-Apr-19 10:33N 58°57' E 005°45'0 0.0
2015-Apr-19 09:33N 58°57' E 005°45'4 3.9
2015-Apr-19 08:33N 58°53' E 005°45'1 1.4
2015-Apr-19 07:33N 58°51' E 005°45'6 5.9
2015-Apr-19 06:33N 58°57' E 005°47'9 8.5
2015-Apr-19 05:33N 59°02' E 005°34'1212.1
2015-Apr-19 04:33N 58°50' E 005°29'2311.7
2015-Apr-19 02:33N 58°27' E 005°35'1212.1
2015-Apr-19 01:33N 58°16' E 005°45'23710.7
2015-Apr-18 03:25N 54°21' E 004°59'1112.0
2015-Apr-18 02:32N 54°10' E 004°56'1211.9
2015-Apr-18 01:33N 53°59' E 004°53'1211.9
2015-Apr-18 00:33N 53°47' E 004°52'1211.5
2015-Apr-17 23:32N 53°35' E 004°49'1111.2
2015-Apr-17 22:33N 53°25' E 004°42'2310.7
2015-Apr-17 20:22N 53°03' E 004°27'911.0
2015-Apr-17 19:33N 52°55' E 004°27'1111.2
2015-Apr-17 18:33N 52°43' E 004°28'1111.0
2015-Apr-17 17:33N 52°32' E 004°29'6 6.1
2015-Apr-17 16:34N 52°28' E 004°36'2 2.4
2015-Apr-17 15:33N 52°28' E 004°40'0 0.0
2015-Apr-17 14:33N 52°28' E 004°40'0 0.0
2015-Apr-17 13:33N 52°28' E 004°40'0 0.0
2015-Apr-17 12:32N 52°28' E 004°40'0 0.0
2015-Apr-17 11:33N 52°28' E 004°40'0 0.0
2015-Apr-17 10:33N 52°28' E 004°40'0 0.0
2015-Apr-17 09:33N 52°28' E 004°40'0 0.0
2015-Apr-17 08:33N 52°28' E 004°40'0 0.0
2015-Apr-17 07:33N 52°28' E 004°40'0 0.0
2015-Apr-17 06:33N 52°28' E 004°40'0 0.0
2015-Apr-17 05:33N 52°28' E 004°40'0 0.0
2015-Apr-17 04:33N 52°28' E 004°40'0 0.0
2015-Apr-17 03:33N 52°28' E 004°40'0 0.0
2015-Apr-17 02:33N 52°28' E 004°40'0 0.0
2015-Apr-17 01:33N 52°28' E 004°40'0 0.0
2015-Apr-17 00:33N 52°28' E 004°40'0 0.0
2015-Apr-16 23:33N 52°28' E 004°40'0 0.0
2015-Apr-16 22:33N 52°28' E 004°40'0 0.0
2015-Apr-16 21:33N 52°28' E 004°40'0 0.0
2015-Apr-16 20:33N 52°28' E 004°40'0 0.0
2015-Apr-16 19:33N 52°28' E 004°40'0 0.0
2015-Apr-16 18:33N 52°28' E 004°40'0 0.0
2015-Apr-16 17:33N 52°28' E 004°40'0 0.0
2015-Apr-16 16:33N 52°28' E 004°40'0 0.0
2015-Apr-16 15:33N 52°28' E 004°40'0 0.0
2015-Apr-16 14:33N 52°28' E 004°40'0 0.0
2015-Apr-16 13:33N 52°28' E 004°40'0 0.0
2015-Apr-16 12:33N 52°28' E 004°40'0 0.0
2015-Apr-16 11:33N 52°28' E 004°40'0 0.0
2015-Apr-16 10:33N 52°28' E 004°40'0 0.0
2015-Apr-16 09:33N 52°28' E 004°40'0 0.0
2015-Apr-16 08:33N 52°28' E 004°40'0 0.0
2015-Apr-16 07:33N 52°28' E 004°40'0 0.0
2015-Apr-16 06:33N 52°28' E 004°40'2 2.3
2015-Apr-16 05:33N 52°28' E 004°36'5 4.5
2015-Apr-16 04:33N 52°28' E 004°29'1111.1
2015-Apr-16 03:33N 52°29' E 004°11'1211.7
2015-Apr-16 02:32N 52°27' E 003°51'1210.8
2015-Apr-16 01:27N 52°29' E 003°32'1011.1
2015-Apr-16 00:32N 52°33' E 003°17'5811.7
2015-Apr-15 19:33N 52°57' E 001°49'1312.7
2015-Apr-15 18:33N 53°04' E 001°32'5413.4
2015-Apr-15 14:33N 53°32' E 000°15'1010.3
2015-Apr-15 13:34N 53°35' W 000°01'2 2.3
2015-Apr-15 12:33N 53°35' W 000°04'0 0.0
2015-Apr-15 11:33N 53°35' W 000°04'0 0.0
2015-Apr-15 10:34N 53°35' W 000°04'0 0.0
2015-Apr-15 09:33N 53°35' W 000°04'0 0.0
2015-Apr-15 08:33N 53°35' W 000°04'0 0.0
2015-Apr-15 07:34N 53°35' W 000°04'0 0.0
2015-Apr-15 06:33N 53°35' W 000°04'0 0.0
2015-Apr-15 05:33N 53°35' W 000°04'0 0.0
2015-Apr-15 04:34N 53°35' W 000°04'0 0.0
2015-Apr-15 03:33N 53°35' W 000°04'0 0.2
2015-Apr-15 02:33N 53°35' W 000°04'2 2.1
2015-Apr-15 01:34N 53°36' W 000°01'7 6.7
2015-Apr-15 00:34N 53°33' E 000°09'6 6.1
2015-Apr-14 23:32N 53°36' E 000°19'6 6.4
2015-Apr-14 22:32N 53°41' E 000°26'9 8.9
2015-Apr-14 21:33N 53°49' E 000°32'8 8.1
2015-Apr-14 20:32N 53°56' E 000°37'9 7.8
2015-Apr-14 19:20N 54°05' E 000°44'32511.3
2015-Apr-13 14:31N 58°56' E 005°05'1111.5
2015-Apr-13 13:33N 59°05' E 005°16'3 3.5
2015-Apr-13 12:33N 59°09' E 005°16'1 0.8
2015-Apr-13 11:33N 59°08' E 005°17'1 0.7
2015-Apr-13 10:33N 59°08' E 005°19'2110.3
2015-Apr-13 08:29N 59°29' E 005°12'  

Dump ship's entire track history